Time;durP1;ratioP1;P1;durP2;ratioP2;P2;SDS_P1;SDS_P2;PMS_P1;PMS_P2;Temp;Humidity;BMP_temperature;BMP_pressure;BME280_temperature;BME280_humidity;BME280_pressure;Samples;Min_cycle;Max_cycle;Signal;HPM_P1;HPM_P2
2021/12/21 00:00:46;;;;;;;;;;;4.60;99.90;;;;;;5054053;28;20004;-80
2021/12/21 00:03:11;;;;;;;;;;;4.60;99.90;;;;;;5054190;28;19919;-79
2021/12/21 00:05:37;;;;;;;;;;;4.70;99.90;;;;;;5054146;28;19909;-78
2021/12/21 00:08:06;;;;;;;;;;;4.60;99.90;;;;;;5053640;28;19909;-81
2021/12/21 00:10:32;;;;;;;;;;;4.60;99.90;;;;;;5053992;28;20311;-83
2021/12/21 00:16:13;;;;;;;;;;;4.60;99.90;;;;;;5093802;28;20014;-80
2021/12/21 00:21:19;;;;;;;;;;;4.60;99.90;;;;;;5094048;28;19966;-81
2021/12/21 00:23:46;;;;;;;;;;;4.60;99.90;;;;;;5075905;28;19930;-79
2021/12/21 00:26:16;;;;;;;;;;;4.60;99.90;;;;;;5075403;28;19913;-80
2021/12/21 00:28:58;;;;;;;;;;;4.60;99.90;;;;;;5075609;28;19960;-80
2021/12/21 00:31:25;;;;;;;;;;;4.60;99.90;;;;;;5093918;28;19912;-81
2021/12/21 00:33:50;;;;;;;;;;;4.60;99.90;;;;;;5093893;28;19915;-81
2021/12/21 00:36:17;;;;;;;;;;;4.60;99.90;;;;;;5073986;28;19908;-78
2021/12/21 00:38:43;;;;;;;;;;;4.60;99.90;;;;;;5073289;28;20296;-78
2021/12/21 00:41:09;;;;;;;;;;;4.60;99.90;;;;;;5073487;28;19920;-81
2021/12/21 00:43:35;;;;;;;;;;;4.60;99.90;;;;;;5073346;28;19999;-79
2021/12/21 00:46:01;;;;;;;;;;;4.60;99.90;;;;;;5073632;28;19908;-79
2021/12/21 00:48:29;;;;;;;;;;;4.60;99.90;;;;;;5072877;28;19908;-79
2021/12/21 00:50:56;;;;;;;;;;;4.60;99.90;;;;;;5073150;28;19912;-79
2021/12/21 00:53:21;;;;;;;;;;;4.70;99.90;;;;;;5073417;28;19912;-82
2021/12/21 00:55:47;;;;;;;;;;;4.60;99.90;;;;;;5073204;28;20266;-78
2021/12/21 00:58:12;;;;;;;;;;;4.70;99.90;;;;;;5053560;28;19999;-80
2021/12/21 01:00:38;;;;;;;;;;;4.60;99.90;;;;;;5055204;28;20434;-80
2021/12/21 01:03:09;;;;;;;;;;;4.60;99.90;;;;;;5073297;28;20441;-80
2021/12/21 01:05:46;;;;;;;;;;;4.60;99.90;;;;;;5073405;28;19909;-78
2021/12/21 01:08:16;;;;;;;;;;;4.70;99.90;;;;;;5054782;28;19958;-82
2021/12/21 01:11:07;;;;;;;;;;;4.60;99.90;;;;;;5073188;28;19920;-80
2021/12/21 01:14:38;;;;;;;;;;;4.70;99.90;;;;;;5054925;28;19970;-82
2021/12/21 01:16:44;;;;;;;;;;;4.60;99.90;;;;;;5069617;28;19987;-81
2021/12/21 01:19:16;;;;;;;;;;;4.60;99.90;;;;;;5073107;28;19992;-81
2021/12/21 01:21:54;;;;;;;;;;;4.60;99.90;;;;;;5072973;28;19924;-81
2021/12/21 01:24:32;;;;;;;;;;;4.60;99.90;;;;;;5073098;28;19913;-79
2021/12/21 01:27:13;;;;;;;;;;;4.70;99.90;;;;;;5054457;28;19908;-79
2021/12/21 01:32:30;;;;;;;;;;;4.60;99.90;;;;;;5073307;28;19923;-79
2021/12/21 01:35:10;;;;;;;;;;;4.60;99.90;;;;;;5072937;28;20452;-79
2021/12/21 01:40:25;;;;;;;;;;;4.60;99.90;;;;;;5072930;28;19909;-80
2021/12/21 01:50:47;;;;;;;;;;;4.50;99.90;;;;;;5072802;28;20387;-81
2021/12/21 01:53:13;;;;;;;;;;;4.50;99.90;;;;;;5072757;28;19908;-82
2021/12/21 01:55:39;;;;;;;;;;;4.60;99.90;;;;;;5054800;28;19999;-79
2021/12/21 01:58:04;;;;;;;;;;;4.60;99.90;;;;;;5053410;28;19924;-82
2021/12/21 02:00:31;;;;;;;;;;;4.50;99.90;;;;;;5054662;28;19916;-79
2021/12/21 02:02:57;;;;;;;;;;;4.40;99.90;;;;;;5072129;28;19958;-78
2021/12/21 02:05:22;;;;;;;;;;;4.30;99.90;;;;;;5072616;28;19908;-81
2021/12/21 02:07:49;;;;;;;;;;;4.20;99.90;;;;;;5056132;28;19969;-80
2021/12/21 02:10:14;;;;;;;;;;;4.20;99.90;;;;;;5076325;28;20372;-81
2021/12/21 02:12:40;;;;;;;;;;;4.10;99.90;;;;;;5076304;28;20035;-79
2021/12/21 02:15:06;;;;;;;;;;;4.10;99.90;;;;;;5076007;28;19920;-78
2021/12/21 02:18:11;;;;;;;;;;;4.00;99.90;;;;;;5075933;28;19938;-78
2021/12/21 02:23:12;;;;;;;;;;;3.90;99.90;;;;;;5076012;28;19916;-82
2021/12/21 02:26:06;;;;;;;;;;;3.80;99.90;;;;;;5075939;28;20045;-79
2021/12/21 02:30:58;;;;;;;;;;;3.70;99.90;;;;;;5096096;28;19908;-81
2021/12/21 02:33:25;;;;;;;;;;;3.60;99.90;;;;;;5096359;28;20364;-82
2021/12/21 02:35:51;;;;;;;;;;;3.50;99.90;;;;;;5096029;28;19914;-80
2021/12/21 02:38:17;;;;;;;;;;;3.50;99.90;;;;;;5095581;28;19995;-81
2021/12/21 02:40:44;;;;;;;;;;;3.50;99.90;;;;;;5095859;28;19912;-81
2021/12/21 02:43:10;;;;;;;;;;;3.50;99.90;;;;;;5095858;28;19908;-82
2021/12/21 02:45:36;;;;;;;;;;;3.40;99.90;;;;;;5096012;28;19939;-78
2021/12/21 02:48:02;;;;;;;;;;;3.40;99.90;;;;;;5095344;28;19916;-80
2021/12/21 02:50:28;;;;;;;;;;;3.40;99.90;;;;;;5095630;28;19916;-80
2021/12/21 02:52:53;;;;;;;;;;;3.40;99.90;;;;;;5095741;28;19958;-79
2021/12/21 02:55:19;;;;;;;;;;;3.40;99.90;;;;;;5095748;28;19908;-79
2021/12/21 02:57:45;;;;;;;;;;;3.40;99.90;;;;;;5095357;28;19908;-80
2021/12/21 03:00:11;;;;;;;;;;;3.30;99.90;;;;;;5075638;28;19916;-79
2021/12/21 03:02:37;;;;;;;;;;;3.30;99.90;;;;;;5095342;28;19938;-79
2021/12/21 03:05:03;;;;;;;;;;;3.20;99.90;;;;;;5095482;28;19909;-79
2021/12/21 03:10:15;;;;;;;;;;;3.10;99.90;;;;;;5095472;28;19915;-79
2021/12/21 03:15:28;;;;;;;;;;;3.10;99.90;;;;;;5095315;28;19920;-79
2021/12/21 03:17:55;;;;;;;;;;;3.10;99.90;;;;;;5094552;28;19912;-77
2021/12/21 03:20:20;;;;;;;;;;;3.10;99.90;;;;;;5076115;28;20358;-79
2021/12/21 03:22:46;;;;;;;;;;;3.00;99.90;;;;;;5077033;28;19909;-78
2021/12/21 03:25:12;;;;;;;;;;;3.00;99.90;;;;;;5094877;28;19912;-81
2021/12/21 03:27:38;;;;;;;;;;;3.00;99.90;;;;;;5094919;28;19908;-79
2021/12/21 03:30:05;;;;;;;;;;;3.00;99.90;;;;;;5094779;28;20395;-80
2021/12/21 03:32:31;;;;;;;;;;;2.90;99.90;;;;;;5094942;28;19946;-80
2021/12/21 03:34:56;;;;;;;;;;;2.90;99.90;;;;;;5093697;28;20032;-77
2021/12/21 03:37:22;;;;;;;;;;;2.80;99.90;;;;;;5076297;28;19908;-80
2021/12/21 03:39:50;;;;;;;;;;;2.80;99.90;;;;;;5094853;28;19908;-81
2021/12/21 03:42:16;;;;;;;;;;;2.70;99.90;;;;;;5094692;28;19938;-78
2021/12/21 03:44:42;;;;;;;;;;;2.70;99.90;;;;;;5094596;28;19912;-82
2021/12/21 03:47:10;;;;;;;;;;;2.70;99.90;;;;;;5076199;28;19912;-79
2021/12/21 03:52:12;;;;;;;;;;;2.60;99.90;;;;;;5094675;28;20379;-79
2021/12/21 03:54:39;;;;;;;;;;;2.50;99.90;;;;;;5094522;28;19908;-81
2021/12/21 03:57:05;;;;;;;;;;;2.60;99.90;;;;;;5094305;28;19915;-80
2021/12/21 03:59:30;;;;;;;;;;;2.60;99.90;;;;;;5056853;28;19916;-81
2021/12/21 04:01:56;;;;;;;;;;;2.50;99.90;;;;;;5094316;28;20372;-81
2021/12/21 04:04:23;;;;;;;;;;;2.50;99.90;;;;;;5094321;28;19952;-78
2021/12/21 04:06:49;;;;;;;;;;;2.30;99.90;;;;;;5076197;28;19914;-79
2021/12/21 04:09:14;;;;;;;;;;;2.40;99.90;;;;;;5075625;28;20375;-81
2021/12/21 04:11:40;;;;;;;;;;;2.40;99.90;;;;;;5094248;28;20326;-81
2021/12/21 04:14:05;;;;;;;;;;;2.20;99.90;;;;;;5075617;28;20342;-80
2021/12/21 04:16:31;;;;;;;;;;;2.30;99.90;;;;;;5094217;28;20395;-81
2021/12/21 04:18:57;;;;;;;;;;;2.20;99.90;;;;;;5093807;28;19914;-80
2021/12/21 04:21:22;;;;;;;;;;;1.90;99.90;;;;;;5092715;28;20364;-81
2021/12/21 04:23:48;;;;;;;;;;;1.80;99.90;;;;;;5094039;28;20338;-79
2021/12/21 04:26:14;;;;;;;;;;;1.80;99.90;;;;;;5093792;28;19962;-80
2021/12/21 04:28:40;;;;;;;;;;;1.80;99.90;;;;;;5093418;28;19908;-80
2021/12/21 04:31:06;;;;;;;;;;;1.90;99.90;;;;;;5093594;28;19916;-81
2021/12/21 04:33:33;;;;;;;;;;;1.90;99.90;;;;;;5093829;28;19912;-80
2021/12/21 04:35:59;;;;;;;;;;;2.00;99.90;;;;;;5093850;28;19912;-80
2021/12/21 04:38:29;;;;;;;;;;;2.00;99.90;;;;;;5093404;28;19929;-78
2021/12/21 04:41:01;;;;;;;;;;;1.80;99.90;;;;;;5093757;28;19923;-81
2021/12/21 04:43:27;;;;;;;;;;;1.90;99.90;;;;;;5075234;28;19923;-80
2021/12/21 04:45:53;;;;;;;;;;;1.80;99.90;;;;;;5093731;28;19908;-82
2021/12/21 04:48:18;;;;;;;;;;;1.50;99.90;;;;;;5093281;28;20392;-81
2021/12/21 04:50:44;;;;;;;;;;;1.70;99.90;;;;;;5093288;28;20380;-79
2021/12/21 04:53:10;;;;;;;;;;;1.70;99.90;;;;;;5093731;28;19908;-81
2021/12/21 04:55:36;;;;;;;;;;;1.60;99.90;;;;;;5075361;28;19915;-80
2021/12/21 04:58:02;;;;;;;;;;;1.50;99.90;;;;;;5093252;28;20003;-82
2021/12/21 05:00:28;;;;;;;;;;;1.50;99.90;;;;;;5055878;28;19955;-81
2021/12/21 05:02:53;;;;;;;;;;;1.40;99.90;;;;;;5093519;28;19959;-81
2021/12/21 05:05:19;;;;;;;;;;;1.30;99.90;;;;;;5093476;28;19909;-79
2021/12/21 05:07:50;;;;;;;;;;;1.30;99.90;;;;;;5093123;28;20261;-80
2021/12/21 05:10:16;;;;;;;;;;;1.50;99.90;;;;;;5093346;28;19912;-81
2021/12/21 05:12:41;;;;;;;;;;;1.50;99.90;;;;;;5075169;28;19916;-80
2021/12/21 05:15:07;;;;;;;;;;;1.60;99.90;;;;;;5074867;28;20296;-82
2021/12/21 05:17:33;;;;;;;;;;;1.70;99.90;;;;;;5071665;28;19939;-78
2021/12/21 05:19:59;;;;;;;;;;;1.80;99.90;;;;;;5055120;28;20309;-79
2021/12/21 05:22:25;;;;;;;;;;;1.80;99.90;;;;;;5055089;28;19913;-81
2021/12/21 05:24:53;;;;;;;;;;;1.70;99.90;;;;;;5073003;28;19912;-80
2021/12/21 05:27:19;;;;;;;;;;;1.60;99.90;;;;;;5054849;28;19916;-81
2021/12/21 05:29:45;;;;;;;;;;;1.70;99.90;;;;;;5072735;28;19915;-80
2021/12/21 05:32:10;;;;;;;;;;;1.70;99.90;;;;;;5055057;28;20288;-79
2021/12/21 05:34:36;;;;;;;;;;;1.70;99.90;;;;;;5072988;28;19908;-79
2021/12/21 05:37:06;;;;;;;;;;;1.60;99.90;;;;;;5072913;28;19912;-80
2021/12/21 05:39:40;;;;;;;;;;;1.70;99.90;;;;;;5072382;28;19916;-81
2021/12/21 05:42:06;;;;;;;;;;;1.70;99.90;;;;;;5055527;28;20347;-79
2021/12/21 05:44:31;;;;;;;;;;;1.70;99.90;;;;;;5076641;28;19919;-82
2021/12/21 05:46:57;;;;;;;;;;;1.70;99.90;;;;;;5076728;28;19909;-79
2021/12/21 05:49:23;;;;;;;;;;;1.70;99.90;;;;;;5076295;28;19908;-79
2021/12/21 05:51:48;;;;;;;;;;;1.70;99.90;;;;;;5076632;28;19931;-81
2021/12/21 05:54:15;;;;;;;;;;;1.60;99.90;;;;;;5058690;28;19953;-78
2021/12/21 05:56:40;;;;;;;;;;;1.60;99.90;;;;;;5076609;28;19908;-78
2021/12/21 05:59:06;;;;;;;;;;;1.60;99.90;;;;;;5039076;28;20411;-80
2021/12/21 06:01:32;;;;;;;;;;;1.50;99.90;;;;;;5076227;28;19916;-81
2021/12/21 06:04:00;;;;;;;;;;;1.50;99.90;;;;;;5076404;28;19915;-79
2021/12/21 06:06:26;;;;;;;;;;;1.40;99.90;;;;;;5076508;28;19908;-79
2021/12/21 06:08:53;;;;;;;;;;;1.50;99.90;;;;;;5088411;28;19919;-80
2021/12/21 06:11:21;;;;;;;;;;;1.40;99.90;;;;;;5096634;28;19912;-79
2021/12/21 06:26:55;;;;;;;;;;;1.30;99.90;;;;;;5096273;28;19961;-80
2021/12/21 06:29:21;;;;;;;;;;;1.30;99.90;;;;;;5095878;28;19990;-78
2021/12/21 06:31:47;;;;;;;;;;;1.30;99.90;;;;;;5096283;28;20284;-81
2021/12/21 06:34:12;;;;;;;;;;;1.30;99.90;;;;;;5096137;28;19919;-80
2021/12/21 06:36:38;;;;;;;;;;;1.30;99.90;;;;;;5096076;28;19908;-77
2021/12/21 06:39:07;;;;;;;;;;;1.30;99.90;;;;;;5074026;28;20423;-82
2021/12/21 06:41:33;;;;;;;;;;;1.40;99.90;;;;;;5074434;28;20336;-78
2021/12/21 06:44:00;;;;;;;;;;;1.40;99.90;;;;;;5075515;28;19948;-80
2021/12/21 06:51:50;;;;;;;;;;;1.50;99.90;;;;;;5095784;28;20406;-79
2021/12/21 06:54:16;;;;;;;;;;;1.40;99.90;;;;;;5095464;28;19908;-82
2021/12/21 06:56:41;;;;;;;;;;;1.30;99.90;;;;;;5077525;28;20350;-79
2021/12/21 06:59:07;;;;;;;;;;;1.20;99.90;;;;;;5093899;28;19915;-79
2021/12/21 07:01:36;;;;;;;;;;;1.40;99.90;;;;;;5076217;28;20391;-82
2021/12/21 07:04:01;;;;;;;;;;;1.30;99.90;;;;;;5077355;28;19908;-80
2021/12/21 07:06:27;;;;;;;;;;;1.30;99.90;;;;;;5095560;28;19915;-78
2021/12/21 07:11:38;;;;;;;;;;;1.30;99.90;;;;;;5095555;28;19915;-81
2021/12/21 07:19:52;;;;;;;;;;;1.30;99.90;;;;;;5032578;28;19919;-80
2021/12/21 07:22:18;;;;;;;;;;;1.30;99.90;;;;;;5069315;28;20334;-83
2021/12/21 07:24:44;;;;;;;;;;;1.20;99.90;;;;;;5095244;28;19908;-79
2021/12/21 07:27:10;;;;;;;;;;;1.20;99.90;;;;;;5076902;28;19933;-82
2021/12/21 07:29:35;;;;;;;;;;;1.20;99.90;;;;;;5076445;28;19945;-82
2021/12/21 07:32:01;;;;;;;;;;;1.10;99.90;;;;;;5094985;28;19971;-80
2021/12/21 07:34:27;;;;;;;;;;;1.20;99.90;;;;;;5076809;28;19908;-78
2021/12/21 07:36:53;;;;;;;;;;;1.20;99.90;;;;;;5094930;28;19915;-79
2021/12/21 07:39:18;;;;;;;;;;;1.20;99.90;;;;;;5094476;28;19915;-80
2021/12/21 07:41:45;;;;;;;;;;;1.10;99.90;;;;;;5094945;28;20006;-78
2021/12/21 07:44:11;;;;;;;;;;;1.10;99.90;;;;;;5094607;28;19915;-80
2021/12/21 07:46:38;;;;;;;;;;;1.00;99.90;;;;;;5094774;28;19912;-79
2021/12/21 07:49:04;;;;;;;;;;;1.10;99.90;;;;;;5094316;28;20439;-81
2021/12/21 07:51:29;;;;;;;;;;;1.10;99.90;;;;;;5094634;28;20018;-79
2021/12/21 07:53:55;;;;;;;;;;;1.00;99.90;;;;;;5094608;28;19959;-78
2021/12/21 07:56:20;;;;;;;;;;;1.00;99.90;;;;;;5076453;28;19908;-78
2021/12/21 07:58:47;;;;;;;;;;;0.90;99.90;;;;;;5094083;28;19908;-80
2021/12/21 08:01:13;;;;;;;;;;;1.00;99.90;;;;;;5056719;28;19920;-80
2021/12/21 08:03:39;;;;;;;;;;;1.20;99.90;;;;;;5094468;28;19998;-78
2021/12/21 08:06:06;;;;;;;;;;;1.20;99.90;;;;;;5093508;28;19908;-78
2021/12/21 08:08:34;;;;;;;;;;;1.40;99.90;;;;;;5094187;28;19915;-78
2021/12/21 08:13:46;;;;;;;;;;;1.50;99.90;;;;;;5094598;28;19927;-79
2021/12/21 08:16:13;;;;;;;;;;;1.60;99.90;;;;;;5075438;28;19908;-81
2021/12/21 08:18:40;;;;;;;;;;;1.70;99.90;;;;;;5053037;28;20400;-80
2021/12/21 08:21:06;;;;;;;;;;;1.70;99.90;;;;;;5074243;28;19912;-78
2021/12/21 08:23:32;;;;;;;;;;;1.70;99.90;;;;;;5074323;28;19936;-81
2021/12/21 08:25:58;;;;;;;;;;;1.90;99.90;;;;;;5074553;28;19916;-79
2021/12/21 08:28:23;;;;;;;;;;;1.90;99.90;;;;;;5073774;28;20266;-79
2021/12/21 08:30:49;;;;;;;;;;;2.10;99.90;;;;;;5074134;28;19915;-80
2021/12/21 08:33:15;;;;;;;;;;;2.30;99.90;;;;;;5074105;28;19908;-79
2021/12/21 08:35:41;;;;;;;;;;;2.70;99.90;;;;;;5074426;28;20265;-79
2021/12/21 08:38:13;;;;;;;;;;;3.60;99.90;;;;;;5073770;28;19986;-80
2021/12/21 08:40:40;;;;;;;;;;;4.40;99.90;;;;;;5073962;28;20310;-79
2021/12/21 08:43:06;;;;;;;;;;;5.30;99.90;;;;;;5073835;28;19927;-80
2021/12/21 08:45:33;;;;;;;;;;;5.70;99.90;;;;;;5073949;28;19913;-82
2021/12/21 08:47:59;;;;;;;;;;;6.30;99.90;;;;;;5056087;28;19920;-79
2021/12/21 08:50:25;;;;;;;;;;;6.40;99.90;;;;;;5074185;28;19958;-80
2021/12/21 08:52:51;;;;;;;;;;;7.20;99.90;;;;;;5073625;28;20003;-79
2021/12/21 08:55:18;;;;;;;;;;;7.10;99.90;;;;;;5073543;28;19966;-80
2021/12/21 08:57:44;;;;;;;;;;;7.10;99.80;;;;;;5073266;28;19995;-81
2021/12/21 09:00:10;;;;;;;;;;;7.60;98.60;;;;;;5091343;28;19916;-79
2021/12/21 09:02:37;;;;;;;;;;;8.20;97.50;;;;;;5073041;28;19947;-82
2021/12/21 09:05:07;;;;;;;;;;;9.10;94.60;;;;;;5094386;28;20001;-81
2021/12/21 09:07:33;;;;;;;;;;;9.80;90.70;;;;;;5094275;28;19919;-79
2021/12/21 09:09:58;;;;;;;;;;;10.20;90.10;;;;;;5093615;28;19909;-83
2021/12/21 09:12:24;;;;;;;;;;;11.00;88.50;;;;;;5094323;28;19958;-79
2021/12/21 09:14:50;;;;;;;;;;;10.80;82.30;;;;;;5094107;28;19959;-80
2021/12/21 09:17:15;;;;;;;;;;;11.20;82.60;;;;;;5096760;28;20318;-79
2021/12/21 09:19:41;;;;;;;;;;;10.60;83.30;;;;;;5079716;28;20402;-80
2021/12/21 09:22:06;;;;;;;;;;;10.30;84.10;;;;;;5098355;28;19920;-81
2021/12/21 09:24:32;;;;;;;;;;;10.40;84.50;;;;;;5079931;28;19990;-81
2021/12/21 09:26:58;;;;;;;;;;;10.80;83.80;;;;;;5098032;28;19916;-80
2021/12/21 09:29:23;;;;;;;;;;;11.00;81.60;;;;;;5087121;28;19936;-80
2021/12/21 09:31:49;;;;;;;;;;;11.00;81.30;;;;;;5077868;28;20292;-80
2021/12/21 09:34:14;;;;;;;;;;;11.00;81.10;;;;;;5077750;28;19909;-80
2021/12/21 09:36:40;;;;;;;;;;;11.50;79.50;;;;;;5059993;28;19908;-81
2021/12/21 09:39:05;;;;;;;;;;;12.10;77.20;;;;;;5059428;28;20296;-79
2021/12/21 09:41:31;;;;;;;;;;;12.20;76.20;;;;;;5077065;28;19913;-80
2021/12/21 09:43:57;;;;;;;;;;;12.50;74.00;;;;;;5059877;28;19909;-81
2021/12/21 09:46:22;;;;;;;;;;;12.70;73.70;;;;;;5077441;28;19909;-82
2021/12/21 09:48:48;;;;;;;;;;;13.00;72.10;;;;;;5082178;28;19914;-81
2021/12/21 09:51:15;;;;;;;;;;;13.10;71.40;;;;;;5097780;28;19908;-80
2021/12/21 09:53:42;;;;;;;;;;;13.40;70.40;;;;;;5079204;28;19915;-80
2021/12/21 09:56:07;;;;;;;;;;;13.60;69.90;;;;;;5097658;28;19908;-82
2021/12/21 09:58:33;;;;;;;;;;;14.00;68.80;;;;;;5076123;28;20019;-79
2021/12/21 10:00:59;;;;;;;;;;;14.20;67.70;;;;;;5077020;28;19919;-79
2021/12/21 10:03:24;;;;;;;;;;;14.30;67.40;;;;;;5057427;28;19924;-78
2021/12/21 10:06:00;;;;;;;;;;;14.10;66.90;;;;;;5077063;28;19909;-81
2021/12/21 10:08:29;;;;;;;;;;;14.50;66.50;;;;;;5076801;28;19991;-82
2021/12/21 10:10:55;;;;;;;;;;;14.80;65.30;;;;;;5059021;28;19912;-82
2021/12/21 10:13:24;;;;;;;;;;;14.90;64.30;;;;;;5078878;28;20379;-83
2021/12/21 10:15:51;;;;;;;;;;;15.60;62.70;;;;;;5078777;28;20382;-81
2021/12/21 10:18:23;;;;;;;;;;;15.50;62.50;;;;;;5097243;28;20405;-81
2021/12/21 10:20:49;;;;;;;;;;;15.60;61.50;;;;;;5097218;28;19919;-81
2021/12/21 10:23:26;;;;;;;;;;;16.30;61.20;;;;;;5097214;28;19908;-80
2021/12/21 10:25:57;;;;;;;;;;;16.40;59.90;;;;;;5078412;28;20384;-79
2021/12/21 10:28:36;;;;;;;;;;;16.60;59.10;;;;;;5095958;28;19914;-79
2021/12/21 10:31:06;;;;;;;;;;;17.00;58.10;;;;;;5078518;28;20045;-80
2021/12/21 10:33:32;;;;;;;;;;;17.10;57.80;;;;;;5078581;28;19908;-80
2021/12/21 10:35:58;;;;;;;;;;;17.40;57.30;;;;;;5096728;28;19916;-80
2021/12/21 10:38:40;;;;;;;;;;;17.60;56.20;;;;;;5078188;28;19915;-79
2021/12/21 10:41:16;;;;;;;;;;;17.70;55.70;;;;;;5055822;28;20019;-79
2021/12/21 10:43:42;;;;;;;;;;;18.20;55.60;;;;;;5097010;28;19908;-79
2021/12/21 10:46:08;;;;;;;;;;;18.70;53.20;;;;;;5096708;28;19922;-79
2021/12/21 10:48:36;;;;;;;;;;;19.10;53.40;;;;;;5094883;28;19908;-79
2021/12/21 10:51:02;;;;;;;;;;;19.50;52.50;;;;;;5078247;28;20284;-80
2021/12/21 10:53:28;;;;;;;;;;;19.80;52.10;;;;;;5096333;28;20402;-80
2021/12/21 10:56:01;;;;;;;;;;;20.30;51.10;;;;;;5094405;28;19912;-80
2021/12/21 10:58:28;;;;;;;;;;;20.70;49.80;;;;;;5057852;28;19908;-80
2021/12/21 11:00:56;;;;;;;;;;;20.40;49.60;;;;;;5078066;28;20422;-81
2021/12/21 11:03:44;;;;;;;;;;;20.60;50.20;;;;;;5096555;28;19938;-79
2021/12/21 11:06:12;;;;;;;;;;;20.60;49.10;;;;;;5096063;28;19953;-80
2021/12/21 11:08:42;;;;;;;;;;;20.70;49.30;;;;;;5096203;28;19998;-80
2021/12/21 11:11:18;;;;;;;;;;;20.80;48.50;;;;;;5096164;28;19908;-78
2021/12/21 11:13:43;;;;;;;;;;;20.80;48.50;;;;;;5095685;28;19927;-80
2021/12/21 11:16:09;;;;;;;;;;;20.70;48.40;;;;;;5096029;28;20314;-79
2021/12/21 11:18:37;;;;;;;;;;;21.50;47.40;;;;;;5095711;28;19908;-80
2021/12/21 11:21:06;;;;;;;;;;;21.20;48.30;;;;;;5075772;28;19916;-80
2021/12/21 11:23:33;;;;;;;;;;;21.90;47.50;;;;;;5075714;28;20316;-80
2021/12/21 11:26:00;;;;;;;;;;;21.40;47.20;;;;;;5075940;28;19909;-80
2021/12/21 11:28:26;;;;;;;;;;;21.20;47.30;;;;;;5057666;28;19962;-80
2021/12/21 11:30:53;;;;;;;;;;;21.40;47.30;;;;;;5075392;28;19912;-78
2021/12/21 11:33:20;;;;;;;;;;;21.00;47.40;;;;;;5075505;28;19999;-80
2021/12/21 11:38:31;;;;;;;;;;;20.70;48.10;;;;;;5075046;28;19915;-80
2021/12/21 11:40:57;;;;;;;;;;;20.40;48.60;;;;;;5054864;28;19917;-79
2021/12/21 11:43:28;;;;;;;;;;;20.40;49.00;;;;;;5057306;28;19916;-79
2021/12/21 11:45:53;;;;;;;;;;;21.00;48.50;;;;;;5075121;28;19951;-81
2021/12/21 11:48:37;;;;;;;;;;;21.80;46.80;;;;;;5075520;28;19912;-80
2021/12/21 11:51:07;;;;;;;;;;;21.80;46.30;;;;;;5094990;28;19912;-80
2021/12/21 11:53:33;;;;;;;;;;;21.70;46.60;;;;;;5095326;28;19918;-80
2021/12/21 11:55:58;;;;;;;;;;;21.90;46.60;;;;;;5095337;28;20345;-81
2021/12/21 11:58:26;;;;;;;;;;;22.10;45.60;;;;;;5095341;28;19941;-80
2021/12/21 12:00:56;;;;;;;;;;;21.80;45.80;;;;;;5076294;28;19973;-80
2021/12/21 12:03:24;;;;;;;;;;;22.10;45.80;;;;;;5074969;28;19908;-79
2021/12/21 12:05:54;;;;;;;;;;;22.00;46.00;;;;;;5074807;28;20058;-79
2021/12/21 12:08:21;;;;;;;;;;;21.70;46.20;;;;;;5076420;28;19909;-79
2021/12/21 12:10:58;;;;;;;;;;;21.50;46.20;;;;;;5078740;28;19919;-79
2021/12/21 12:13:26;;;;;;;;;;;21.30;46.80;;;;;;5064913;28;19912;-80
2021/12/21 12:15:53;;;;;;;;;;;21.00;47.10;;;;;;5085143;28;19947;-79
2021/12/21 12:18:20;;;;;;;;;;;21.30;47.20;;;;;;5082927;28;19962;-79
2021/12/21 12:20:45;;;;;;;;;;;21.20;47.10;;;;;;5082585;28;19912;-79
2021/12/21 12:23:12;;;;;;;;;;;21.70;46.20;;;;;;5084486;28;20273;-80
2021/12/21 12:25:48;;;;;;;;;;;21.80;46.00;;;;;;5082961;28;19958;-78
2021/12/21 12:28:20;;;;;;;;;;;22.00;45.20;;;;;;5082265;28;19974;-78
2021/12/21 12:30:49;;;;;;;;;;;21.70;45.70;;;;;;5084932;28;19915;-79
2021/12/21 12:33:15;;;;;;;;;;;20.80;46.60;;;;;;5060945;28;19909;-81
2021/12/21 12:35:42;;;;;;;;;;;20.20;47.10;;;;;;5074564;28;19934;-80
2021/12/21 12:38:15;;;;;;;;;;;19.90;47.70;;;;;;5074307;28;19975;-79
2021/12/21 12:40:45;;;;;;;;;;;19.90;47.60;;;;;;5035944;28;19966;-81
2021/12/21 12:43:32;;;;;;;;;;;19.80;47.60;;;;;;5073779;28;19913;-78
2021/12/21 12:46:03;;;;;;;;;;;19.80;47.50;;;;;;5055875;28;19916;-79
2021/12/21 12:48:32;;;;;;;;;;;19.40;48.30;;;;;;5074407;28;19915;-80
2021/12/21 12:51:04;;;;;;;;;;;19.60;48.30;;;;;;5073396;28;19931;-80
2021/12/21 12:53:40;;;;;;;;;;;20.10;47.50;;;;;;5073530;28;20384;-79
2021/12/21 12:56:06;;;;;;;;;;;20.00;47.50;;;;;;5055696;28;20308;-80
2021/12/21 12:58:32;;;;;;;;;;;20.00;47.70;;;;;;5074005;28;19917;-79
2021/12/21 13:01:01;;;;;;;;;;;20.00;48.00;;;;;;5090931;28;19916;-80
2021/12/21 13:03:32;;;;;;;;;;;20.20;47.20;;;;;;5094218;28;19915;-80
2021/12/21 13:05:59;;;;;;;;;;;19.90;47.70;;;;;;5093940;28;19954;-80
2021/12/21 13:08:26;;;;;;;;;;;19.80;47.60;;;;;;5094066;28;19912;-80
2021/12/21 13:10:53;;;;;;;;;;;19.60;49.20;;;;;;5059803;28;19909;-79
2021/12/21 13:13:20;;;;;;;;;;;19.60;48.40;;;;;;5073662;28;19908;-78
2021/12/21 13:15:49;;;;;;;;;;;19.30;49.10;;;;;;5073185;28;20531;-79
2021/12/21 13:18:17;;;;;;;;;;;18.70;49.60;;;;;;5073554;28;19996;-79
2021/12/21 13:20:44;;;;;;;;;;;18.80;49.80;;;;;;5073286;28;20011;-80
2021/12/21 13:23:12;;;;;;;;;;;18.90;50.00;;;;;;5055378;28;19908;-79
2021/12/21 13:25:38;;;;;;;;;;;18.00;49.70;;;;;;5055673;28;20436;-80
2021/12/21 13:28:08;;;;;;;;;;;17.70;51.80;;;;;;5073669;28;19959;-80
2021/12/21 13:30:34;;;;;;;;;;;18.50;50.80;;;;;;5073294;28;19909;-80
2021/12/21 13:33:00;;;;;;;;;;;18.90;50.40;;;;;;5055567;28;19916;-81
2021/12/21 13:35:28;;;;;;;;;;;19.00;50.30;;;;;;5073474;28;19931;-81
2021/12/21 13:37:53;;;;;;;;;;;18.70;49.90;;;;;;5073384;28;19922;-80
2021/12/21 13:40:19;;;;;;;;;;;19.00;50.70;;;;;;5055383;28;20387;-81
2021/12/21 13:42:44;;;;;;;;;;;18.90;50.80;;;;;;5054329;28;19924;-79
2021/12/21 13:45:10;;;;;;;;;;;19.20;49.70;;;;;;5073537;28;19909;-79
2021/12/21 13:47:43;;;;;;;;;;;18.60;51.00;;;;;;5055745;28;20276;-79
2021/12/21 13:50:12;;;;;;;;;;;18.40;51.30;;;;;;5055320;28;19917;-80
2021/12/21 13:52:39;;;;;;;;;;;18.30;51.50;;;;;;5073490;28;19912;-80
2021/12/21 13:55:05;;;;;;;;;;;18.50;51.80;;;;;;5073638;28;19916;-79
2021/12/21 13:57:32;;;;;;;;;;;18.70;51.70;;;;;;5073366;28;19916;-80
2021/12/21 13:59:58;;;;;;;;;;;19.00;51.80;;;;;;5079848;28;19944;-80
2021/12/21 14:02:34;;;;;;;;;;;18.70;51.90;;;;;;5075500;28;19943;-81
2021/12/21 14:05:03;;;;;;;;;;;18.30;52.40;;;;;;5097427;28;19916;-81
2021/12/21 14:07:36;;;;;;;;;;;18.10;52.30;;;;;;5097593;28;19955;-79
2021/12/21 14:10:07;;;;;;;;;;;18.30;52.50;;;;;;5096931;28;19908;-79
2021/12/21 14:12:33;;;;;;;;;;;18.30;52.10;;;;;;5097624;28;19961;-79
2021/12/21 14:14:58;;;;;;;;;;;18.00;52.60;;;;;;5096892;28;19924;-80
2021/12/21 14:17:30;;;;;;;;;;;18.10;53.10;;;;;;5097261;28;19912;-79
2021/12/21 14:19:56;;;;;;;;;;;18.00;52.60;;;;;;5096937;28;19912;-79
2021/12/21 14:22:22;;;;;;;;;;;17.60;53.00;;;;;;5078909;28;19944;-79
2021/12/21 14:24:50;;;;;;;;;;;17.50;53.30;;;;;;5079043;28;19947;-80
2021/12/21 14:27:18;;;;;;;;;;;17.40;54.40;;;;;;5078886;28;19908;-79
2021/12/21 14:29:44;;;;;;;;;;;17.10;54.30;;;;;;5092519;28;19940;-79
2021/12/21 14:34:40;;;;;;;;;;;16.70;54.80;;;;;;5076619;28;20349;-77
2021/12/21 14:37:07;;;;;;;;;;;17.00;54.70;;;;;;5076829;28;19909;-80
2021/12/21 14:39:33;;;;;;;;;;;16.50;54.70;;;;;;5078256;28;19936;-80
2021/12/21 14:42:01;;;;;;;;;;;16.00;56.10;;;;;;5059581;28;20011;-80
2021/12/21 14:44:27;;;;;;;;;;;15.10;56.80;;;;;;5096500;28;20421;-78
2021/12/21 14:46:56;;;;;;;;;;;14.40;58.30;;;;;;5096602;28;20295;-79
2021/12/21 14:49:30;;;;;;;;;;;13.70;59.90;;;;;;5078137;28;20359;-77
2021/12/21 14:52:01;;;;;;;;;;;13.30;61.40;;;;;;5096437;28;19936;-79
2021/12/21 14:54:46;;;;;;;;;;;13.40;60.80;;;;;;5096418;28;19908;-79
2021/12/21 14:57:12;;;;;;;;;;;13.50;61.30;;;;;;5077994;28;19908;-78
2021/12/21 14:59:37;;;;;;;;;;;13.60;61.20;;;;;;5096324;28;19961;-78
2021/12/21 15:02:23;;;;;;;;;;;13.90;60.50;;;;;;5096340;28;20439;-78
2021/12/21 15:04:53;;;;;;;;;;;13.60;60.00;;;;;;5096397;28;19931;-79
2021/12/21 15:07:19;;;;;;;;;;;13.00;62.00;;;;;;5078060;28;19908;-78
2021/12/21 15:09:44;;;;;;;;;;;12.50;63.30;;;;;;5096062;28;20002;-78
2021/12/21 15:12:10;;;;;;;;;;;12.00;64.70;;;;;;5096134;28;19915;-79
2021/12/21 15:14:36;;;;;;;;;;;11.70;65.10;;;;;;5095561;28;20372;-80
2021/12/21 15:17:01;;;;;;;;;;;11.20;66.30;;;;;;5096200;28;19908;-80
2021/12/21 15:19:27;;;;;;;;;;;11.00;67.70;;;;;;5095500;28;19908;-77
2021/12/21 15:21:53;;;;;;;;;;;10.80;68.10;;;;;;5095922;28;19951;-78
2021/12/21 15:24:18;;;;;;;;;;;10.50;69.20;;;;;;5096234;28;19987;-79
2021/12/21 15:26:44;;;;;;;;;;;10.20;70.10;;;;;;5095841;28;20016;-78
2021/12/21 15:29:10;;;;;;;;;;;10.00;71.00;;;;;;5095313;28;19908;-79
2021/12/21 15:31:35;;;;;;;;;;;9.90;71.50;;;;;;5077910;28;19908;-81
2021/12/21 15:34:01;;;;;;;;;;;9.80;71.60;;;;;;5075274;28;19921;-78